Time;durP1;ratioP1;P1;durP2;ratioP2;P2;SDS_P1;SDS_P2;PMS_P1;PMS_P2;Temp;Humidity;BMP_temperature;BMP_pressure;BME280_temperature;BME280_humidity;BME280_pressure;Samples;Min_cycle;Max_cycle;Signal;HPM_P1;HPM_P2
2022/05/17 00:00:41;;;;;;;11.40;4.05;;;18.20;99.90;;;;;;5034541;28;20029;-73
2022/05/17 00:03:07;;;;;;;13.13;4.80;;;18.20;99.90;;;;;;5034408;28;20029;-73
2022/05/17 00:05:33;;;;;;;20.63;4.90;;;18.20;99.90;;;;;;5034189;28;20453;-73
2022/05/17 00:07:59;;;;;;;13.20;4.43;;;18.10;99.90;;;;;;5034242;28;20441;-73
2022/05/17 00:10:25;;;;;;;15.88;4.55;;;18.10;99.90;;;;;;5034160;28;20115;-73
2022/05/17 00:12:51;;;;;;;12.52;4.38;;;18.10;99.90;;;;;;5034321;28;20025;-74
2022/05/17 00:15:18;;;;;;;14.77;4.80;;;18.00;99.90;;;;;;5033786;28;20030;-73
2022/05/17 00:17:45;;;;;;;11.48;4.68;;;17.90;99.90;;;;;;5033410;28;20044;-74
2022/05/17 00:20:12;;;;;;;15.50;4.43;;;17.90;99.90;;;;;;5032068;28;20040;-74
2022/05/17 00:22:38;;;;;;;13.90;4.65;;;17.80;99.90;;;;;;5033294;28;20489;-74
2022/05/17 00:25:05;;;;;;;14.27;5.13;;;17.80;99.90;;;;;;5033416;28;20025;-74
2022/05/17 00:27:31;;;;;;;15.85;4.40;;;17.80;99.90;;;;;;5033083;28;20119;-74
2022/05/17 00:29:56;;;;;;;13.43;4.80;;;17.70;99.90;;;;;;5033629;28;20063;-74
2022/05/17 00:32:22;;;;;;;14.18;4.47;;;17.60;99.90;;;;;;5033213;28;20032;-74
2022/05/17 00:34:48;;;;;;;13.23;5.18;;;17.50;99.90;;;;;;5033369;28;20030;-73
2022/05/17 00:37:14;;;;;;;14.00;5.00;;;17.40;99.90;;;;;;5032843;28;20033;-74
2022/05/17 00:39:40;;;;;;;11.73;4.50;;;17.30;99.90;;;;;;5032420;28;20120;-73
2022/05/17 00:42:06;;;;;;;14.80;5.05;;;17.20;99.90;;;;;;5032672;28;20045;-73
2022/05/17 00:44:44;;;;;;;10.88;5.00;;;17.20;99.90;;;;;;5035043;28;20055;-73
2022/05/17 00:47:15;;;;;;;18.73;5.38;;;17.10;99.90;;;;;;5039688;28;20498;-72
2022/05/17 00:49:50;;;;;;;18.85;5.47;;;17.10;99.90;;;;;;5043191;28;20053;-73
2022/05/17 00:52:40;;;;;;;15.98;5.20;;;17.10;99.90;;;;;;5042256;28;20026;-74
2022/05/17 00:55:20;;;;;;;15.95;5.65;;;17.10;99.90;;;;;;5026730;28;20033;-74
2022/05/17 00:58:03;;;;;;;14.07;5.28;;;17.10;99.90;;;;;;5033063;28;20036;-73
2022/05/17 01:00:44;;;;;;;22.15;6.35;;;17.10;99.90;;;;;;5032921;28;20391;-74
2022/05/17 01:03:13;;;;;;;21.02;5.75;;;17.10;99.90;;;;;;5032811;28;20032;-74
2022/05/17 01:05:45;;;;;;;15.85;6.45;;;17.10;99.90;;;;;;5033249;28;20031;-75
2022/05/17 01:08:13;;;;;;;18.95;5.97;;;17.00;99.90;;;;;;5033265;28;20079;-74
2022/05/17 01:10:40;;;;;;;17.67;6.53;;;16.90;99.90;;;;;;5033103;28;20368;-74
2022/05/17 01:15:50;;;;;;;18.52;5.53;;;16.90;99.90;;;;;;5033226;28;20083;-74
2022/05/17 01:18:16;;;;;;;23.98;6.35;;;16.80;99.90;;;;;;5033291;28;20029;-74
2022/05/17 01:20:42;;;;;;;17.65;6.82;;;16.80;99.90;;;;;;5034487;28;20033;-74
2022/05/17 01:23:07;;;;;;;14.10;5.32;;;16.80;99.90;;;;;;5034180;28;20021;-74
2022/05/17 01:25:34;;;;;;;17.98;6.18;;;16.80;99.90;;;;;;5034030;28;20119;-74
2022/05/17 01:28:09;;;;;;;19.52;6.32;;;16.80;99.90;;;;;;5038618;28;20032;-74
2022/05/17 01:30:35;;;;;;;14.70;6.28;;;16.80;99.90;;;;;;5041724;28;20029;-73
2022/05/17 01:33:00;;;;;;;20.55;6.32;;;16.70;99.90;;;;;;5044557;28;20107;-73
2022/05/17 01:35:26;;;;;;;13.60;6.20;;;16.60;99.90;;;;;;5041935;28;20104;-73
2022/05/17 01:37:55;;;;;;;13.40;5.82;;;16.60;99.90;;;;;;5044701;28;20068;-73
2022/05/17 01:40:21;;;;;;;13.85;6.32;;;16.50;99.90;;;;;;5043420;28;20095;-73
2022/05/17 01:42:46;;;;;;;14.60;6.80;;;16.50;99.90;;;;;;5040669;28;20036;-74
2022/05/17 01:45:12;;;;;;;19.42;6.47;;;16.50;99.90;;;;;;5039483;28;20022;-74
2022/05/17 01:47:38;;;;;;;18.70;6.30;;;16.40;99.90;;;;;;5035817;28;20032;-74
2022/05/17 01:50:04;;;;;;;16.00;6.50;;;16.30;99.90;;;;;;5032914;28;20029;-74
2022/05/17 01:52:30;;;;;;;15.85;6.18;;;16.30;99.90;;;;;;5033378;28;20213;-74
2022/05/17 01:54:55;;;;;;;17.02;6.55;;;16.30;99.90;;;;;;5033179;28;20025;-74
2022/05/17 01:57:21;;;;;;;15.68;6.18;;;16.30;99.90;;;;;;5030681;28;20032;-72
2022/05/17 01:59:46;;;;;;;19.83;6.63;;;16.30;99.90;;;;;;5032382;28;20099;-73
2022/05/17 02:02:12;;;;;;;19.42;6.88;;;16.30;99.90;;;;;;5035872;28;20061;-72
2022/05/17 02:04:37;;;;;;;15.60;6.57;;;16.30;99.90;;;;;;5035815;28;20026;-72
2022/05/17 02:07:03;;;;;;;17.25;6.88;;;16.30;99.90;;;;;;5035361;28;20088;-75
2022/05/17 02:09:29;;;;;;;18.77;6.53;;;16.30;99.90;;;;;;5035986;28;20410;-74
2022/05/17 02:11:55;;;;;;;15.35;6.15;;;16.30;99.90;;;;;;5036016;28;20030;-73
2022/05/17 02:14:20;;;;;;;20.30;6.22;;;16.30;99.90;;;;;;5036181;28;20053;-74
2022/05/17 02:16:46;;;;;;;20.70;7.32;;;16.40;99.90;;;;;;5035425;28;20478;-75
2022/05/17 02:19:12;;;;;;;21.95;7.53;;;16.40;99.90;;;;;;5035992;28;20108;-74
2022/05/17 02:21:39;;;;;;;15.30;6.25;;;16.40;99.90;;;;;;5035970;28;20100;-74
2022/05/17 02:24:04;;;;;;;14.43;6.40;;;16.40;99.90;;;;;;5035574;28;20387;-74
2022/05/17 02:26:31;;;;;;;15.98;6.60;;;16.50;99.90;;;;;;5035014;28;20021;-74
2022/05/17 02:28:56;;;;;;;17.13;6.95;;;16.50;99.90;;;;;;5035625;28;20029;-73
2022/05/17 02:31:22;;;;;;;20.83;6.90;;;16.50;99.90;;;;;;5036019;28;20026;-74
2022/05/17 02:33:48;;;;;;;14.20;5.90;;;16.50;99.90;;;;;;5036399;28;20017;-73
2022/05/17 02:36:14;;;;;;;16.65;6.57;;;16.50;99.90;;;;;;5035570;28;20021;-73
2022/05/17 02:38:40;;;;;;;15.40;6.80;;;16.50;99.90;;;;;;5035432;28;20029;-73
2022/05/17 02:41:06;;;;;;;18.95;7.75;;;16.50;99.90;;;;;;5033950;28;20030;-73
2022/05/17 02:43:32;;;;;;;14.90;6.68;;;16.50;99.90;;;;;;5035939;28;20034;-73
2022/05/17 02:45:57;;;;;;;20.75;6.97;;;16.40;99.90;;;;;;5034748;28;20470;-73
2022/05/17 02:48:23;;;;;;;16.60;6.90;;;16.50;99.90;;;;;;5035162;28;20025;-73
2022/05/17 02:50:48;;;;;;;17.65;6.97;;;16.50;99.90;;;;;;5035302;28;20022;-73
2022/05/17 02:53:14;;;;;;;15.43;7.00;;;16.60;99.90;;;;;;5034780;28;20033;-72
2022/05/17 02:55:39;;;;;;;15.48;7.25;;;16.60;99.90;;;;;;5034167;28;20026;-72
2022/05/17 02:58:05;;;;;;;20.88;8.55;;;16.50;99.90;;;;;;5034937;28;20037;-72
2022/05/17 03:00:32;;;;;;;21.77;8.52;;;16.60;99.90;;;;;;5035161;28;20135;-72
2022/05/17 03:02:57;;;;;;;24.75;9.23;;;16.60;99.90;;;;;;5035373;28;20020;-72
2022/05/17 03:05:24;;;;;;;20.73;10.10;;;16.60;99.90;;;;;;5035584;28;20025;-71
2022/05/17 03:07:50;;;;;;;18.98;10.55;;;16.50;99.90;;;;;;5036179;28;20083;-71
2022/05/17 03:10:17;;;;;;;20.52;9.63;;;16.50;99.90;;;;;;5035670;28;20026;-71
2022/05/17 03:12:43;;;;;;;22.73;11.43;;;16.50;99.90;;;;;;5035284;28;20044;-71
2022/05/17 03:15:09;;;;;;;19.95;10.90;;;16.50;99.90;;;;;;5035966;28;20479;-73
2022/05/17 03:17:35;;;;;;;22.05;11.68;;;16.50;99.90;;;;;;5034818;28;20521;-72
2022/05/17 03:20:00;;;;;;;21.15;12.65;;;16.50;99.90;;;;;;5035536;28;20060;-73
2022/05/17 03:22:26;;;;;;;24.80;11.68;;;16.60;99.90;;;;;;5035218;28;20394;-72
2022/05/17 03:24:52;;;;;;;23.83;12.32;;;16.50;99.90;;;;;;5040296;28;20430;-72
2022/05/17 03:27:19;;;;;;;27.00;13.80;;;16.50;99.90;;;;;;5035920;28;20037;-73
2022/05/17 03:29:44;;;;;;;22.73;12.48;;;16.50;99.90;;;;;;5034334;28;20029;-74
2022/05/17 03:32:11;;;;;;;25.92;13.48;;;16.50;99.90;;;;;;5034833;28;20079;-75
2022/05/17 03:34:36;;;;;;;28.95;13.30;;;16.50;99.90;;;;;;5035391;28;20017;-74
2022/05/17 03:37:02;;;;;;;28.27;13.55;;;16.60;99.90;;;;;;5035147;28;20402;-72
2022/05/17 03:39:28;;;;;;;29.77;14.02;;;16.50;99.90;;;;;;5033642;28;20489;-72
2022/05/17 03:41:54;;;;;;;30.75;14.40;;;16.50;99.90;;;;;;5034724;28;20029;-72
2022/05/17 03:44:19;;;;;;;23.60;13.80;;;16.50;99.90;;;;;;5034473;28;20028;-72
2022/05/17 03:46:45;;;;;;;24.13;13.90;;;16.40;99.90;;;;;;5036099;28;20057;-72
2022/05/17 03:49:11;;;;;;;22.10;13.13;;;16.40;99.90;;;;;;5037295;28;20029;-73
2022/05/17 03:51:37;;;;;;;25.90;14.57;;;16.40;99.90;;;;;;5035070;28;20021;-73
2022/05/17 03:54:03;;;;;;;28.88;16.25;;;16.40;99.90;;;;;;5034252;28;20048;-74
2022/05/17 03:56:28;;;;;;;28.52;15.75;;;16.30;99.90;;;;;;5034014;28;20026;-73
2022/05/17 03:58:54;;;;;;;27.45;14.68;;;16.30;99.90;;;;;;5034678;28;20068;-74
2022/05/17 04:01:19;;;;;;;27.85;15.02;;;16.30;99.90;;;;;;5035438;28;20033;-73
2022/05/17 04:03:45;;;;;;;33.03;16.92;;;16.30;99.90;;;;;;5035136;28;20474;-74
2022/05/17 04:06:11;;;;;;;31.02;16.38;;;16.20;99.90;;;;;;5034118;28;20022;-73
2022/05/17 04:08:36;;;;;;;27.88;15.63;;;16.30;99.90;;;;;;5038393;28;20026;-73
2022/05/17 04:11:06;;;;;;;30.13;16.25;;;16.30;99.90;;;;;;5033230;28;20108;-72
2022/05/17 04:13:32;;;;;;;25.52;15.25;;;16.20;99.90;;;;;;5034834;28;20026;-72
2022/05/17 04:15:59;;;;;;;36.72;18.33;;;16.20;99.90;;;;;;5034071;28;20048;-72
2022/05/17 04:18:25;;;;;;;30.90;17.25;;;16.20;99.90;;;;;;5034443;28;20037;-72
2022/05/17 04:20:50;;;;;;;28.92;16.50;;;16.20;99.90;;;;;;5035146;28;20033;-72
2022/05/17 04:23:16;;;;;;;35.95;18.60;;;16.20;99.90;;;;;;5037601;28;20403;-73
2022/05/17 04:25:41;;;;;;;35.25;18.27;;;16.20;99.90;;;;;;5039323;28;20034;-73
2022/05/17 04:28:07;;;;;;;32.67;18.88;;;16.10;99.90;;;;;;5039052;28;20026;-73
2022/05/17 04:30:33;;;;;;;32.70;19.30;;;16.10;99.90;;;;;;5037271;28;20036;-73
2022/05/17 04:33:01;;;;;;;30.88;18.63;;;16.20;99.90;;;;;;5035335;28;20068;-73
2022/05/17 04:35:26;;;;;;;31.27;19.00;;;16.20;99.90;;;;;;5033360;28;20020;-73
2022/05/17 04:37:52;;;;;;;32.20;18.80;;;16.20;99.90;;;;;;5034130;28;20025;-74
2022/05/17 04:40:18;;;;;;;40.38;21.73;;;16.30;99.90;;;;;;5035024;28;20523;-73
2022/05/17 04:42:44;;;;;;;32.72;18.88;;;16.30;99.90;;;;;;5032568;28;20030;-73
2022/05/17 04:45:13;;;;;;;34.53;19.15;;;16.30;99.90;;;;;;5033939;28;20088;-73
2022/05/17 04:47:40;;;;;;;34.90;18.33;;;16.30;99.90;;;;;;5035218;28;20033;-73
2022/05/17 04:50:06;;;;;;;32.22;18.38;;;16.40;99.90;;;;;;5033060;28;20021;-74
2022/05/17 04:52:32;;;;;;;36.03;20.80;;;16.50;99.90;;;;;;5033611;28;20036;-74
2022/05/17 04:54:58;;;;;;;28.77;18.50;;;16.50;99.90;;;;;;5032687;28;20017;-75
2022/05/17 04:57:23;;;;;;;35.15;19.48;;;16.60;99.90;;;;;;5033711;28;20033;-74
2022/05/17 04:59:49;;;;;;;33.70;18.60;;;16.60;99.90;;;;;;5033556;28;20021;-74
2022/05/17 05:02:14;;;;;;;33.45;17.88;;;16.60;99.90;;;;;;5035095;28;20033;-74
2022/05/17 05:04:40;;;;;;;32.97;17.70;;;16.60;99.90;;;;;;5033508;28;20029;-72
2022/05/17 05:07:06;;;;;;;28.45;17.88;;;16.70;99.90;;;;;;5033191;28;20025;-73
2022/05/17 05:09:32;;;;;;;30.15;18.35;;;16.70;99.90;;;;;;5034049;28;20021;-73
2022/05/17 05:11:58;;;;;;;29.38;18.30;;;16.70;99.90;;;;;;5033589;28;20087;-74
2022/05/17 05:14:24;;;;;;;27.05;16.95;;;16.70;99.90;;;;;;5034360;28;20026;-74
2022/05/17 05:16:50;;;;;;;27.65;16.13;;;16.70;99.90;;;;;;5036205;28;20028;-73
2022/05/17 05:19:15;;;;;;;32.03;18.10;;;16.70;99.90;;;;;;5036159;28;20082;-73
2022/05/17 05:21:41;;;;;;;33.40;18.60;;;16.70;99.90;;;;;;5038354;28;20112;-77
2022/05/17 05:24:07;;;;;;;31.38;18.45;;;16.80;99.90;;;;;;5038930;28;20028;-76
2022/05/17 05:26:34;;;;;;;28.17;17.83;;;16.80;99.90;;;;;;5034938;28;20025;-75
2022/05/17 05:29:00;;;;;;;28.05;18.05;;;16.80;99.90;;;;;;5037143;28;20393;-74
2022/05/17 05:31:25;;;;;;;31.10;18.60;;;16.80;99.90;;;;;;5036871;28;20025;-77
2022/05/17 05:33:51;;;;;;;27.80;17.52;;;16.80;99.90;;;;;;5036181;28;20030;-75
2022/05/17 05:36:17;;;;;;;33.25;19.17;;;16.80;99.90;;;;;;5038532;28;20374;-75
2022/05/17 05:38:42;;;;;;;33.03;19.05;;;16.90;99.90;;;;;;5041609;28;20049;-75
2022/05/17 05:41:12;;;;;;;30.20;18.55;;;16.80;99.90;;;;;;5039859;28;20089;-75
2022/05/17 05:43:38;;;;;;;28.92;18.08;;;16.90;99.90;;;;;;5041026;28;20025;-74
2022/05/17 05:46:05;;;;;;;27.85;18.23;;;16.80;99.90;;;;;;5037452;28;20040;-75
2022/05/17 05:48:31;;;;;;;28.63;19.02;;;16.90;99.90;;;;;;5040197;28;20021;-76
2022/05/17 05:50:56;;;;;;;41.47;20.77;;;16.90;99.90;;;;;;5041621;28;20029;-74
2022/05/17 05:53:22;;;;;;;35.00;19.85;;;16.90;99.90;;;;;;5038002;28;20382;-74
2022/05/17 05:55:57;;;;;;;32.25;20.65;;;16.90;99.90;;;;;;5039097;28;20029;-74
2022/05/17 05:58:24;;;;;;;27.20;19.05;;;16.90;99.90;;;;;;5039923;28;20457;-75
2022/05/17 06:00:49;;;;;;;27.48;19.48;;;16.90;99.90;;;;;;5038620;28;20068;-76
2022/05/17 06:03:15;;;;;;;27.40;18.80;;;16.90;99.90;;;;;;5040128;28;20030;-77
2022/05/17 06:05:41;;;;;;;28.45;19.30;;;16.90;99.90;;;;;;5036314;28;20028;-75
2022/05/17 06:08:15;;;;;;;30.08;18.30;;;16.90;99.90;;;;;;5039186;28;20549;-74
2022/05/17 06:10:44;;;;;;;26.20;17.88;;;16.80;99.90;;;;;;5038889;28;20018;-74
2022/05/17 06:13:10;;;;;;;28.63;17.88;;;16.90;99.90;;;;;;5041499;28;20033;-74
2022/05/17 06:15:37;;;;;;;27.98;17.60;;;16.90;99.90;;;;;;5047430;28;20072;-75
2022/05/17 06:18:04;;;;;;;26.80;16.83;;;16.90;99.90;;;;;;5042858;28;20083;-74
2022/05/17 06:20:29;;;;;;;24.73;16.73;;;16.90;99.90;;;;;;5038972;28;20045;-73
2022/05/17 06:22:55;;;;;;;27.73;17.83;;;17.00;99.90;;;;;;5039696;28;20021;-76
2022/05/17 06:25:21;;;;;;;27.08;19.08;;;17.00;99.90;;;;;;5043181;28;20037;-73
2022/05/17 06:27:47;;;;;;;25.92;17.92;;;17.00;99.90;;;;;;5036262;28;20024;-71
2022/05/17 06:30:13;;;;;;;27.70;17.98;;;17.00;99.90;;;;;;5039400;28;20041;-73
2022/05/17 06:32:40;;;;;;;29.35;17.52;;;17.00;99.90;;;;;;5038856;28;20032;-73
2022/05/17 06:35:06;;;;;;;26.80;18.67;;;17.00;99.90;;;;;;5042711;28;20029;-74
2022/05/17 06:37:31;;;;;;;26.67;17.83;;;17.00;99.90;;;;;;5038531;28;20033;-71
2022/05/17 06:39:57;;;;;;;26.63;17.25;;;17.00;99.90;;;;;;5038587;28;20021;-72
2022/05/17 06:42:23;;;;;;;29.73;19.30;;;17.00;99.90;;;;;;5045162;28;20057;-74
2022/05/17 06:44:49;;;;;;;29.35;18.92;;;17.10;99.90;;;;;;5040871;28;20053;-73
2022/05/17 06:47:14;;;;;;;25.13;18.15;;;17.10;99.90;;;;;;5039231;28;20033;-73
2022/05/17 06:49:40;;;;;;;30.60;18.83;;;17.10;99.90;;;;;;5039454;28;20021;-73
2022/05/17 06:52:08;;;;;;;29.73;19.50;;;17.20;99.90;;;;;;5038779;28;20025;-71
2022/05/17 06:54:35;;;;;;;31.55;20.10;;;17.20;99.90;;;;;;5037932;28;20109;-73
2022/05/17 06:57:08;;;;;;;38.53;24.90;;;17.20;99.90;;;;;;5041160;28;20104;-72
2022/05/17 06:59:35;;;;;;;30.85;20.67;;;17.30;99.90;;;;;;5034985;28;20025;-73
2022/05/17 07:02:01;;;;;;;30.55;20.00;;;17.40;99.90;;;;;;5035179;28;20036;-73
2022/05/17 07:04:28;;;;;;;28.48;18.52;;;17.40;99.90;;;;;;5035365;28;20022;-72
2022/05/17 07:06:55;;;;;;;23.05;16.50;;;17.50;99.90;;;;;;5034147;28;20022;-72
2022/05/17 07:09:22;;;;;;;24.55;16.80;;;17.50;99.90;;;;;;5033999;28;20045;-72
2022/05/17 07:14:34;;;;;;;25.15;16.63;;;17.60;99.90;;;;;;5036995;28;20075;-71
2022/05/17 07:17:00;;;;;;;25.00;16.15;;;17.70;99.90;;;;;;5039344;28;20056;-73
2022/05/17 07:19:26;;;;;;;29.83;18.88;;;17.70;99.90;;;;;;5050959;23;20069;-75
2022/05/17 07:21:51;;;;;;;34.05;18.35;;;17.70;99.90;;;;;;5035889;28;20033;-76
2022/05/17 07:24:19;;;;;;;31.25;21.80;;;17.80;99.90;;;;;;5034651;28;20026;-75
2022/05/17 07:26:45;;;;;;;29.25;17.92;;;17.80;99.90;;;;;;5032565;28;20022;-75
2022/05/17 07:29:10;;;;;;;22.17;16.02;;;17.90;99.90;;;;;;5035241;28;20037;-75
2022/05/17 07:31:36;;;;;;;29.60;18.80;;;18.00;99.90;;;;;;5034475;28;20025;-75
2022/05/17 07:34:03;;;;;;;26.67;16.85;;;18.00;99.90;;;;;;5035254;28;20087;-75
2022/05/17 07:36:28;;;;;;;22.90;15.30;;;18.10;99.90;;;;;;5032639;28;20580;-75
2022/05/17 07:38:54;;;;;;;22.73;14.50;;;18.20;99.90;;;;;;5034804;28;20041;-75
2022/05/17 07:41:20;;;;;;;22.13;15.00;;;18.30;99.90;;;;;;5034260;28;20045;-76
2022/05/17 07:43:45;;;;;;;25.55;15.23;;;18.40;99.90;;;;;;5034441;28;20031;-76
2022/05/17 07:46:11;;;;;;;20.52;14.38;;;18.50;99.90;;;;;;5034427;28;20033;-76
2022/05/17 07:48:36;;;;;;;25.30;16.02;;;18.60;99.90;;;;;;5034770;28;20472;-76
2022/05/17 07:51:02;;;;;;;17.70;12.30;;;18.70;99.90;;;;;;5036696;28;20055;-78
2022/05/17 07:53:28;;;;;;;17.30;12.45;;;18.90;99.90;;;;;;5042618;28;20036;-77
2022/05/17 07:55:54;;;;;;;18.58;12.05;;;19.10;99.90;;;;;;5034618;28;20033;-77
2022/05/17 07:58:20;;;;;;;18.60;11.32;;;19.30;99.90;;;;;;5034332;28;20327;-77
2022/05/17 08:00:46;;;;;;;12.75;9.70;;;19.50;99.90;;;;;;5033862;28;20032;-75
2022/05/17 08:03:15;;;;;;;18.05;12.15;;;19.70;99.90;;;;;;5034142;28;20112;-76
2022/05/17 08:05:41;;;;;;;20.20;11.38;;;19.80;99.90;;;;;;5033483;28;20057;-76
2022/05/17 08:08:07;;;;;;;16.73;13.02;;;19.80;99.90;;;;;;5033436;28;20556;-76
2022/05/17 08:10:32;;;;;;;20.33;12.82;;;19.80;99.90;;;;;;5033540;28;20474;-76
2022/05/17 08:12:58;;;;;;;18.75;13.40;;;19.80;99.90;;;;;;5033859;28;20025;-74
2022/05/17 08:15:25;;;;;;;20.17;12.55;;;19.80;99.90;;;;;;5033767;28;20088;-75
2022/05/17 08:17:51;;;;;;;18.52;12.13;;;19.80;99.90;;;;;;5033718;28;20478;-75
2022/05/17 08:20:18;;;;;;;17.00;11.45;;;19.80;99.90;;;;;;5033705;28;20041;-74
2022/05/17 08:22:45;;;;;;;24.00;12.40;;;19.80;99.90;;;;;;5033956;28;20152;-75
2022/05/17 08:27:58;;;;;;;16.23;10.90;;;19.90;99.90;;;;;;5033354;28;20168;-74
2022/05/17 08:30:26;;;;;;;16.25;10.65;;;19.90;99.90;;;;;;5033908;28;20063;-77
2022/05/17 08:35:52;;;;;;;20.20;11.98;;;20.00;99.90;;;;;;5033181;28;20032;-74
2022/05/17 08:38:22;;;;;;;20.83;12.75;;;20.00;99.90;;;;;;5031953;28;20022;-75
2022/05/17 08:41:01;;;;;;;17.73;11.57;;;20.00;99.90;;;;;;5035278;28;20032;-74
2022/05/17 08:43:57;;;;;;;21.75;11.55;;;20.10;99.90;;;;;;5033387;28;20041;-76
2022/05/17 08:46:28;;;;;;;14.48;9.68;;;20.20;99.90;;;;;;5034255;28;20550;-76
2022/05/17 08:49:01;;;;;;;15.48;9.73;;;20.30;99.90;;;;;;5032843;28;20053;-76
2022/05/17 08:51:47;;;;;;;14.05;9.05;;;20.50;99.90;;;;;;5032969;28;20021;-76
2022/05/17 08:54:19;;;;;;;11.80;8.68;;;20.60;99.90;;;;;;5038511;28;20005;-75
2022/05/17 08:56:58;;;;;;;17.77;9.57;;;20.60;99.90;;;;;;5046100;28;20025;-75
2022/05/17 08:59:24;;;;;;;12.98;8.95;;;20.60;99.90;;;;;;5047398;28;20018;-76
2022/05/17 09:02:00;;;;;;;14.70;8.60;;;20.60;99.90;;;;;;5039723;28;20025;-75
2022/05/17 09:04:51;;;;;;;13.30;8.20;;;20.60;99.90;;;;;;5033638;28;20018;-75
2022/05/17 09:07:32;;;;;;;12.90;9.32;;;20.70;99.90;;;;;;5032573;28;20036;-76
2022/05/17 09:10:06;;;;;;;14.32;8.88;;;20.80;99.90;;;;;;5032423;28;20029;-77
2022/05/17 09:12:45;;;;;;;14.82;9.02;;;20.80;99.90;;;;;;5031325;28;20521;-77
2022/05/17 09:15:15;;;;;;;13.85;8.48;;;20.90;99.90;;;;;;5032104;28;20607;-75
2022/05/17 09:17:40;;;;;;;13.52;9.05;;;21.00;99.90;;;;;;5035879;28;20085;-78
2022/05/17 09:20:08;;;;;;;13.50;9.00;;;21.00;99.90;;;;;;5033550;28;20176;-76
2022/05/17 09:22:34;;;;;;;12.60;8.50;;;21.10;99.90;;;;;;5032741;28;20516;-76
2022/05/17 09:25:02;;;;;;;11.07;8.02;;;21.20;99.90;;;;;;5032550;28;20061;-76
2022/05/17 09:27:39;;;;;;;17.38;9.60;;;21.40;99.90;;;;;;5032142;28;20030;-77
2022/05/17 09:30:13;;;;;;;14.40;8.90;;;21.60;99.90;;;;;;5032643;28;20040;-76
2022/05/17 09:32:44;;;;;;;14.00;8.32;;;21.70;99.90;;;;;;5033024;28;20556;-75
2022/05/17 09:35:16;;;;;;;13.68;7.63;;;21.80;99.90;;;;;;5032362;28;20083;-76
2022/05/17 09:37:45;;;;;;;9.60;6.75;;;21.90;99.90;;;;;;5031046;28;20033;-75
2022/05/17 09:40:28;;;;;;;8.15;6.45;;;22.10;99.90;;;;;;5032291;28;20386;-76
2022/05/17 09:43:02;;;;;;;8.95;6.57;;;22.30;99.90;;;;;;5033616;28;20052;-77
2022/05/17 09:46:00;;;;;;;10.00;6.60;;;22.40;99.90;;;;;;5034008;28;20036;-75
2022/05/17 09:54:29;;;;;;;9.70;6.80;;;22.50;99.90;;;;;;5043842;28;20032;-74
2022/05/17 09:57:11;;;;;;;9.77;6.72;;;22.60;99.90;;;;;;5047730;28;20045;-76
2022/05/17 09:59:36;;;;;;;8.77;6.38;;;22.70;99.90;;;;;;5039455;28;20053;-76
2022/05/17 10:02:02;;;;;;;9.23;5.68;;;22.80;99.90;;;;;;5043833;28;20029;-75
2022/05/17 10:04:28;;;;;;;7.65;6.22;;;22.90;99.90;;;;;;5043753;28;20382;-74
2022/05/17 10:06:56;;;;;;;8.18;6.28;;;23.00;99.90;;;;;;5044142;28;20042;-76
2022/05/17 10:09:31;;;;;;;10.60;6.95;;;23.10;99.90;;;;;;5043544;28;20021;-75
2022/05/17 10:12:04;;;;;;;12.35;6.80;;;23.10;99.90;;;;;;5041433;28;20030;-76
2022/05/17 10:14:40;;;;;;;8.32;6.20;;;23.20;99.90;;;;;;5033809;28;20022;-75
2022/05/17 10:17:26;;;;;;;9.23;6.75;;;23.30;99.90;;;;;;5030451;28;20088;-77
2022/05/17 10:19:55;;;;;;;7.20;5.75;;;23.40;99.90;;;;;;5030725;28;20037;-76
2022/05/17 10:22:35;;;;;;;7.10;5.93;;;23.40;99.90;;;;;;5035350;28;20497;-76
2022/05/17 10:25:15;;;;;;;6.63;5.93;;;23.40;99.90;;;;;;5035076;28;20466;-75
2022/05/17 10:27:50;;;;;;;8.90;5.40;;;23.40;99.90;;;;;;5034863;28;20025;-74
2022/05/17 10:30:37;;;;;;;11.63;5.75;;;23.30;99.90;;;;;;5035472;28;20137;-75
2022/05/17 10:33:09;;;;;;;8.55;6.63;;;23.30;99.90;;;;;;5035810;28;20379;-75
2022/05/17 10:35:57;;;;;;;8.98;6.32;;;23.20;99.90;;;;;;5034068;28;20029;-76
2022/05/17 10:38:29;;;;;;;8.18;6.00;;;23.10;99.90;;;;;;5027869;28;20124;-75
2022/05/17 10:40:56;;;;;;;6.53;4.95;;;22.90;99.90;;;;;;5035168;28;20494;-76
2022/05/17 10:43:33;;;;;;;6.78;4.65;;;22.70;99.90;;;;;;5035305;28;20398;-74
2022/05/17 10:46:08;;;;;;;6.45;4.35;;;22.60;99.90;;;;;;5035257;28;20033;-74
2022/05/17 10:48:58;;;;;;;6.82;4.35;;;22.50;99.90;;;;;;5035450;28;20160;-75
2022/05/17 10:51:45;;;;;;;8.20;5.40;;;22.40;99.90;;;;;;5035692;28;20029;-75
2022/05/17 10:54:17;;;;;;;6.95;5.40;;;22.20;99.90;;;;;;5035847;28;20057;-76
2022/05/17 10:57:06;;;;;;;7.50;5.30;;;22.10;99.90;;;;;;5034371;28;20028;-76
2022/05/17 10:59:56;;;;;;;7.63;5.88;;;22.10;99.90;;;;;;5036415;28;20475;-75
2022/05/17 11:02:52;;;;;;;6.68;5.00;;;22.00;99.90;;;;;;5039020;28;20081;-76
2022/05/17 11:05:28;;;;;;;8.13;5.85;;;22.00;99.90;;;;;;5036903;28;20025;-76
2022/05/17 11:08:30;;;;;;;6.32;4.65;;;22.00;99.90;;;;;;5035991;28;20072;-75
2022/05/17 11:11:07;;;;;;;5.18;4.60;;;22.10;99.90;;;;;;5035251;28;20025;-76
2022/05/17 11:13:46;;;;;;;6.82;5.50;;;22.20;99.90;;;;;;5035896;28;20017;-76
2022/05/17 11:16:40;;;;;;;11.65;8.18;;;22.30;99.90;;;;;;5035085;28;20017;-74
2022/05/17 11:19:25;;;;;;;8.48;6.70;;;22.20;99.90;;;;;;5036088;28;20292;-76
2022/05/17 11:22:03;;;;;;;7.07;5.63;;;22.30;99.90;;;;;;5035248;28;20021;-76
2022/05/17 11:24:58;;;;;;;8.82;5.30;;;22.30;99.90;;;;;;5034798;28;20156;-76
2022/05/17 11:27:54;;;;;;;7.72;5.85;;;22.30;99.90;;;;;;5035225;28;20108;-76
2022/05/17 11:30:49;;;;;;;9.65;7.00;;;22.30;99.90;;;;;;5035231;28;20048;-76
2022/05/17 11:33:24;;;;;;;;;;;22.30;99.90;;;;;;5040179;28;20100;-76
2022/05/17 11:35:51;;;;;;;12.10;6.60;;;22.30;99.90;;;;;;5038134;28;20350;-75
2022/05/17 11:38:31;;;;;;;7.20;5.65;;;22.20;99.90;;;;;;5034934;28;20033;-74
2022/05/17 11:40:58;;;;;;;7.80;5.32;;;22.10;99.90;;;;;;5034513;28;20025;-76
2022/05/17 11:43:45;;;;;;;11.05;5.63;;;22.00;99.90;;;;;;5034482;28;20029;-75
2022/05/17 11:46:29;;;;;;;17.35;11.48;;;22.00;99.90;;;;;;5034093;28;20032;-74
2022/05/17 11:48:56;;;;;;;34.63;23.80;;;22.00;99.90;;;;;;5034416;28;20029;-76
2022/05/17 11:51:24;;;;;;;8.13;5.93;;;22.00;99.90;;;;;;5034797;28;20032;-76
2022/05/17 11:53:52;;;;;;;8.80;4.80;;;22.00;99.90;;;;;;5035550;28;20017;-76
2022/05/17 11:56:28;;;;;;;6.70;4.50;;;22.10;99.90;;;;;;5033893;28;20045;-76
2022/05/17 11:58:56;;;;;;;10.10;6.75;;;22.10;99.90;;;;;;5034690;28;20025;-76
2022/05/17 12:01:31;;;;;;;10.98;6.50;;;22.10;99.90;;;;;;5039428;28;20037;-76
2022/05/17 12:04:02;;;;;;;;;;;22.10;99.90;;;;;;5058041;28;20021;-76
2022/05/17 12:06:39;;;;;;;12.65;6.30;;;22.00;99.90;;;;;;5057805;28;19920;-77
2022/05/17 12:09:29;;;;;;;16.27;7.43;;;22.00;99.90;;;;;;5057567;28;20089;-78
2022/05/17 12:12:16;;;;;;;10.18;7.63;;;21.90;99.90;;;;;;5028536;28;20045;-75
2022/05/17 12:15:11;;;;;;;11.23;7.63;;;21.80;99.90;;;;;;5032903;28;20120;-75
2022/05/17 12:17:46;;;;;;;10.93;6.45;;;21.70;99.90;;;;;;5033654;28;20104;-75
2022/05/17 12:20:47;;;;;;;8.77;5.88;;;21.60;99.90;;;;;;5033829;28;20518;-74
2022/05/17 12:23:31;;;;;;;10.80;6.65;;;21.60;99.90;;;;;;5033734;28;20014;-76
2022/05/17 12:26:22;;;;;;;10.43;6.03;;;21.60;99.90;;;;;;5033271;28;20036;-75
2022/05/17 12:28:52;;;;;;;16.75;8.63;;;21.60;99.90;;;;;;5033598;28;20061;-74
2022/05/17 12:31:26;;;;;;;25.73;16.95;;;21.60;99.90;;;;;;5033361;28;20017;-74
2022/05/17 12:33:53;;;;;;;19.97;11.33;;;21.60;99.90;;;;;;5032042;28;20409;-75
2022/05/17 12:36:28;;;;;;;25.88;15.55;;;21.60;99.90;;;;;;5032822;28;20268;-75
2022/05/17 12:44:41;;;;;;;13.35;6.10;;;21.70;99.90;;;;;;5032771;28;20064;-75
2022/05/17 12:47:15;;;;;;;9.27;5.95;;;21.70;99.90;;;;;;5032392;28;20464;-75
2022/05/17 12:49:42;;;;;;;9.35;5.57;;;21.80;99.90;;;;;;5031324;28;20506;-75
2022/05/17 12:52:20;;;;;;;8.82;5.68;;;21.80;99.90;;;;;;5033160;28;20033;-75
2022/05/17 12:54:50;;;;;;;8.30;6.10;;;21.90;99.90;;;;;;5031390;28;20496;-75
2022/05/17 12:57:27;;;;;;;9.35;5.45;;;21.80;99.90;;;;;;5034875;28;20037;-78
2022/05/17 13:00:08;;;;;;;29.30;16.13;;;21.70;99.90;;;;;;5034627;28;20029;-76
2022/05/17 13:02:42;;;;;;;12.48;7.30;;;21.50;99.90;;;;;;5049138;28;20109;-77
2022/05/17 13:05:25;;;;;;;10.35;7.05;;;21.40;99.90;;;;;;5047949;28;20036;-76
2022/05/17 13:08:03;;;;;;;11.35;7.15;;;21.30;99.90;;;;;;5033171;28;20107;-77
2022/05/17 13:10:29;;;;;;;20.48;12.52;;;21.20;99.90;;;;;;5033510;28;20108;-76